sensor_id;sensor_type;location;lat;lon;timestamp;P1;durP1;ratioP1;P2;durP2;ratioP2
15327;SDS011;7764;51.430;6.840;2023-07-31T00:01:59;15.32;;;7.68;;
15327;SDS011;7764;51.430;6.840;2023-07-31T00:04:27;15.98;;;7.68;;
15327;SDS011;7764;51.430;6.840;2023-07-31T00:06:54;17.33;;;7.03;;
15327;SDS011;7764;51.430;6.840;2023-07-31T00:09:21;18.55;;;7.47;;
15327;SDS011;7764;51.430;6.840;2023-07-31T00:11:48;16.48;;;7.40;;
15327;SDS011;7764;51.430;6.840;2023-07-31T00:14:15;15.57;;;7.00;;
15327;SDS011;7764;51.430;6.840;2023-07-31T00:16:42;14.82;;;6.82;;
15327;SDS011;7764;51.430;6.840;2023-07-31T00:19:11;14.03;;;6.60;;
15327;SDS011;7764;51.430;6.840;2023-07-31T00:21:38;12.75;;;6.18;;
15327;SDS011;7764;51.430;6.840;2023-07-31T00:24:05;16.33;;;6.55;;
15327;SDS011;7764;51.430;6.840;2023-07-31T00:26:32;15.38;;;7.20;;
15327;SDS011;7764;51.430;6.840;2023-07-31T00:28:59;15.27;;;6.30;;
15327;SDS011;7764;51.430;6.840;2023-07-31T00:31:26;14.95;;;7.03;;
15327;SDS011;7764;51.430;6.840;2023-07-31T00:33:53;14.07;;;6.32;;
15327;SDS011;7764;51.430;6.840;2023-07-31T00:36:22;15.38;;;6.32;;
15327;SDS011;7764;51.430;6.840;2023-07-31T00:38:49;14.88;;;6.28;;
15327;SDS011;7764;51.430;6.840;2023-07-31T00:41:16;13.25;;;6.10;;
15327;SDS011;7764;51.430;6.840;2023-07-31T00:43:43;15.03;;;6.23;;
15327;SDS011;7764;51.430;6.840;2023-07-31T00:46:10;13.32;;;6.50;;
15327;SDS011;7764;51.430;6.840;2023-07-31T00:48:37;12.70;;;5.97;;
15327;SDS011;7764;51.430;6.840;2023-07-31T00:51:06;14.43;;;6.15;;
15327;SDS011;7764;51.430;6.840;2023-07-31T00:53:35;13.98;;;6.55;;
15327;SDS011;7764;51.430;6.840;2023-07-31T00:56:02;16.95;;;6.70;;
15327;SDS011;7764;51.430;6.840;2023-07-31T00:58:30;17.00;;;6.40;;
15327;SDS011;7764;51.430;6.840;2023-07-31T01:00:57;17.60;;;6.80;;
15327;SDS011;7764;51.430;6.840;2023-07-31T01:03:24;16.85;;;7.20;;
15327;SDS011;7764;51.430;6.840;2023-07-31T01:05:54;17.27;;;7.38;;
15327;SDS011;7764;51.430;6.840;2023-07-31T01:08:24;21.05;;;8.32;;
15327;SDS011;7764;51.430;6.840;2023-07-31T01:10:54;16.45;;;7.10;;
15327;SDS011;7764;51.430;6.840;2023-07-31T01:13:22;21.40;;;8.07;;
15327;SDS011;7764;51.430;6.840;2023-07-31T01:15:50;18.48;;;7.60;;
15327;SDS011;7764;51.430;6.840;2023-07-31T01:18:17;16.53;;;7.30;;
15327;SDS011;7764;51.430;6.840;2023-07-31T01:20:44;17.70;;;7.10;;
15327;SDS011;7764;51.430;6.840;2023-07-31T01:26:09;18.25;;;7.07;;
15327;SDS011;7764;51.430;6.840;2023-07-31T01:28:40;16.97;;;7.50;;
15327;SDS011;7764;51.430;6.840;2023-07-31T01:31:12;13.77;;;6.57;;
15327;SDS011;7764;51.430;6.840;2023-07-31T01:33:40;15.20;;;7.32;;
15327;SDS011;7764;51.430;6.840;2023-07-31T01:36:07;17.73;;;7.50;;
15327;SDS011;7764;51.430;6.840;2023-07-31T01:38:35;15.15;;;6.53;;
15327;SDS011;7764;51.430;6.840;2023-07-31T01:41:02;15.00;;;6.25;;
15327;SDS011;7764;51.430;6.840;2023-07-31T01:43:30;12.97;;;6.23;;
15327;SDS011;7764;51.430;6.840;2023-07-31T01:45:57;17.10;;;6.70;;
15327;SDS011;7764;51.430;6.840;2023-07-31T01:48:24;14.95;;;6.90;;
15327;SDS011;7764;51.430;6.840;2023-07-31T01:50:51;14.40;;;6.05;;
15327;SDS011;7764;51.430;6.840;2023-07-31T01:53:19;15.35;;;6.93;;
15327;SDS011;7764;51.430;6.840;2023-07-31T01:55:46;16.45;;;6.60;;
15327;SDS011;7764;51.430;6.840;2023-07-31T01:58:13;16.80;;;7.28;;
15327;SDS011;7764;51.430;6.840;2023-07-31T02:00:41;17.40;;;6.53;;
15327;SDS011;7764;51.430;6.840;2023-07-31T02:03:07;17.47;;;6.60;;
15327;SDS011;7764;51.430;6.840;2023-07-31T02:05:35;16.00;;;6.68;;
15327;SDS011;7764;51.430;6.840;2023-07-31T02:08:02;15.52;;;7.07;;
15327;SDS011;7764;51.430;6.840;2023-07-31T02:10:29;16.53;;;7.47;;
15327;SDS011;7764;51.430;6.840;2023-07-31T02:12:56;17.67;;;7.60;;
15327;SDS011;7764;51.430;6.840;2023-07-31T02:15:23;17.52;;;7.88;;
15327;SDS011;7764;51.430;6.840;2023-07-31T02:17:52;14.63;;;7.10;;
15327;SDS011;7764;51.430;6.840;2023-07-31T02:20:19;15.40;;;6.87;;
15327;SDS011;7764;51.430;6.840;2023-07-31T02:22:46;15.07;;;7.00;;
15327;SDS011;7764;51.430;6.840;2023-07-31T02:25:13;17.77;;;6.83;;
15327;SDS011;7764;51.430;6.840;2023-07-31T02:27:40;15.97;;;5.87;;
15327;SDS011;7764;51.430;6.840;2023-07-31T02:30:08;15.80;;;6.40;;
15327;SDS011;7764;51.430;6.840;2023-07-31T02:32:35;15.70;;;5.97;;
15327;SDS011;7764;51.430;6.840;2023-07-31T02:35:04;12.85;;;6.55;;
15327;SDS011;7764;51.430;6.840;2023-07-31T02:37:31;14.88;;;6.78;;
15327;SDS011;7764;51.430;6.840;2023-07-31T02:39:58;18.33;;;7.23;;
15327;SDS011;7764;51.430;6.840;2023-07-31T02:42:26;14.77;;;6.13;;
15327;SDS011;7764;51.430;6.840;2023-07-31T02:44:53;14.82;;;6.32;;
15327;SDS011;7764;51.430;6.840;2023-07-31T02:47:21;16.05;;;6.30;;
15327;SDS011;7764;51.430;6.840;2023-07-31T02:49:48;15.83;;;6.47;;
15327;SDS011;7764;51.430;6.840;2023-07-31T02:52:16;15.53;;;6.83;;
15327;SDS011;7764;51.430;6.840;2023-07-31T02:54:43;17.42;;;6.47;;
15327;SDS011;7764;51.430;6.840;2023-07-31T02:57:10;16.52;;;6.03;;
15327;SDS011;7764;51.430;6.840;2023-07-31T02:59:38;14.93;;;6.67;;
15327;SDS011;7764;51.430;6.840;2023-07-31T03:02:05;19.85;;;6.70;;
15327;SDS011;7764;51.430;6.840;2023-07-31T03:04:32;15.57;;;6.53;;
15327;SDS011;7764;51.430;6.840;2023-07-31T03:06:59;16.52;;;7.30;;
15327;SDS011;7764;51.430;6.840;2023-07-31T03:09:27;16.20;;;6.60;;
15327;SDS011;7764;51.430;6.840;2023-07-31T03:11:55;15.30;;;6.70;;
15327;SDS011;7764;51.430;6.840;2023-07-31T03:14:22;17.93;;;6.67;;
15327;SDS011;7764;51.430;6.840;2023-07-31T03:16:51;16.60;;;6.72;;
15327;SDS011;7764;51.430;6.840;2023-07-31T03:19:18;18.30;;;6.47;;
15327;SDS011;7764;51.430;6.840;2023-07-31T03:21:45;17.10;;;6.77;;
15327;SDS011;7764;51.430;6.840;2023-07-31T03:24:12;17.73;;;7.00;;
15327;SDS011;7764;51.430;6.840;2023-07-31T03:26:41;15.07;;;6.53;;
15327;SDS011;7764;51.430;6.840;2023-07-31T03:29:08;16.37;;;6.93;;
15327;SDS011;7764;51.430;6.840;2023-07-31T03:31:35;17.83;;;8.33;;
15327;SDS011;7764;51.430;6.840;2023-07-31T03:34:02;16.75;;;6.60;;
15327;SDS011;7764;51.430;6.840;2023-07-31T03:36:29;14.00;;;6.60;;
15327;SDS011;7764;51.430;6.840;2023-07-31T03:38:56;13.73;;;6.15;;
15327;SDS011;7764;51.430;6.840;2023-07-31T03:41:24;14.95;;;6.22;;
15327;SDS011;7764;51.430;6.840;2023-07-31T03:43:52;24.85;;;11.80;;
15327;SDS011;7764;51.430;6.840;2023-07-31T03:46:21;16.60;;;6.40;;
15327;SDS011;7764;51.430;6.840;2023-07-31T03:48:48;20.83;;;7.53;;
15327;SDS011;7764;51.430;6.840;2023-07-31T03:51:15;19.55;;;7.63;;
15327;SDS011;7764;51.430;6.840;2023-07-31T03:53:43;22.75;;;7.47;;
15327;SDS011;7764;51.430;6.840;2023-07-31T03:56:10;15.95;;;6.55;;
15327;SDS011;7764;51.430;6.840;2023-07-31T03:58:37;16.23;;;7.68;;
15327;SDS011;7764;51.430;6.840;2023-07-31T04:01:05;18.17;;;7.25;;
15327;SDS011;7764;51.430;6.840;2023-07-31T04:03:33;18.57;;;9.80;;
15327;SDS011;7764;51.430;6.840;2023-07-31T04:06:00;15.80;;;7.80;;
15327;SDS011;7764;51.430;6.840;2023-07-31T04:08:27;14.75;;;6.60;;
15327;SDS011;7764;51.430;6.840;2023-07-31T04:10:55;12.30;;;5.57;;
15327;SDS011;7764;51.430;6.840;2023-07-31T04:13:22;14.10;;;6.10;;
15327;SDS011;7764;51.430;6.840;2023-07-31T04:15:49;15.07;;;6.03;;
15327;SDS011;7764;51.430;6.840;2023-07-31T04:18:18;14.63;;;5.65;;
15327;SDS011;7764;51.430;6.840;2023-07-31T04:20:45;14.60;;;6.10;;
15327;SDS011;7764;51.430;6.840;2023-07-31T04:23:12;13.25;;;6.10;;
15327;SDS011;7764;51.430;6.840;2023-07-31T04:25:39;23.37;;;6.50;;
15327;SDS011;7764;51.430;6.840;2023-07-31T04:28:07;12.05;;;6.15;;
15327;SDS011;7764;51.430;6.840;2023-07-31T04:30:34;14.50;;;5.72;;
15327;SDS011;7764;51.430;6.840;2023-07-31T04:33:01;12.07;;;6.03;;
15327;SDS011;7764;51.430;6.840;2023-07-31T04:35:30;14.10;;;5.82;;
15327;SDS011;7764;51.430;6.840;2023-07-31T04:37:57;15.13;;;6.13;;
15327;SDS011;7764;51.430;6.840;2023-07-31T04:40:24;13.75;;;5.63;;
15327;SDS011;7764;51.430;6.840;2023-07-31T04:42:51;12.07;;;5.57;;
15327;SDS011;7764;51.430;6.840;2023-07-31T04:45:18;15.27;;;6.25;;
15327;SDS011;7764;51.430;6.840;2023-07-31T04:47:45;14.07;;;6.38;;
15327;SDS011;7764;51.430;6.840;2023-07-31T04:50:12;12.60;;;6.03;;
15327;SDS011;7764;51.430;6.840;2023-07-31T04:52:41;15.37;;;6.83;;
15327;SDS011;7764;51.430;6.840;2023-07-31T04:55:08;13.15;;;5.82;;
15327;SDS011;7764;51.430;6.840;2023-07-31T04:57:35;12.70;;;5.45;;
15327;SDS011;7764;51.430;6.840;2023-07-31T05:00:03;14.05;;;5.90;;
15327;SDS011;7764;51.430;6.840;2023-07-31T05:02:30;10.95;;;5.32;;
15327;SDS011;7764;51.430;6.840;2023-07-31T05:04:57;12.38;;;5.35;;
15327;SDS011;7764;51.430;6.840;2023-07-31T05:07:24;11.18;;;5.53;;
15327;SDS011;7764;51.430;6.840;2023-07-31T05:09:52;12.10;;;6.00;;
15327;SDS011;7764;51.430;6.840;2023-07-31T05:12:20;10.90;;;5.50;;
15327;SDS011;7764;51.430;6.840;2023-07-31T05:14:47;13.20;;;6.80;;
15327;SDS011;7764;51.430;6.840;2023-07-31T05:17:14;13.70;;;8.40;;
15327;SDS011;7764;51.430;6.840;2023-07-31T05:19:41;11.52;;;6.15;;
15327;SDS011;7764;51.430;6.840;2023-07-31T05:22:08;11.63;;;6.93;;
15327;SDS011;7764;51.430;6.840;2023-07-31T05:24:35;13.55;;;5.88;;
15327;SDS011;7764;51.430;6.840;2023-07-31T05:27:04;13.77;;;6.40;;
15327;SDS011;7764;51.430;6.840;2023-07-31T05:29:31;14.65;;;5.82;;
15327;SDS011;7764;51.430;6.840;2023-07-31T05:31:58;12.05;;;6.10;;
15327;SDS011;7764;51.430;6.840;2023-07-31T05:34:25;14.23;;;6.00;;
15327;SDS011;7764;51.430;6.840;2023-07-31T05:36:53;13.20;;;5.90;;
15327;SDS011;7764;51.430;6.840;2023-07-31T05:39:20;12.45;;;5.68;;
15327;SDS011;7764;51.430;6.840;2023-07-31T05:41:47;10.65;;;6.05;;
15327;SDS011;7764;51.430;6.840;2023-07-31T05:44:16;14.02;;;6.57;;
15327;SDS011;7764;51.430;6.840;2023-07-31T05:46:43;14.80;;;6.50;;
15327;SDS011;7764;51.430;6.840;2023-07-31T05:49:10;15.88;;;9.93;;
15327;SDS011;7764;51.430;6.840;2023-07-31T05:51:37;13.05;;;7.13;;
15327;SDS011;7764;51.430;6.840;2023-07-31T05:54:04;12.82;;;6.97;;
15327;SDS011;7764;51.430;6.840;2023-07-31T05:56:31;12.65;;;6.38;;
15327;SDS011;7764;51.430;6.840;2023-07-31T05:58:59;11.80;;;6.15;;
15327;SDS011;7764;51.430;6.840;2023-07-31T06:01:27;12.23;;;6.10;;
15327;SDS011;7764;51.430;6.840;2023-07-31T06:03:54;11.02;;;6.10;;
15327;SDS011;7764;51.430;6.840;2023-07-31T06:06:22;13.63;;;6.45;;
15327;SDS011;7764;51.430;6.840;2023-07-31T06:08:49;15.43;;;11.20;;
15327;SDS011;7764;51.430;6.840;2023-07-31T06:11:16;14.05;;;5.80;;
15327;SDS011;7764;51.430;6.840;2023-07-31T06:13:43;10.38;;;6.05;;
15327;SDS011;7764;51.430;6.840;2023-07-31T06:16:12;11.13;;;5.90;;
15327;SDS011;7764;51.430;6.840;2023-07-31T06:18:40;13.02;;;6.60;;
15327;SDS011;7764;51.430;6.840;2023-07-31T06:21:07;12.73;;;6.30;;
15327;SDS011;7764;51.430;6.840;2023-07-31T06:23:34;11.68;;;6.57;;
15327;SDS011;7764;51.430;6.840;2023-07-31T06:26:01;12.68;;;6.78;;
15327;SDS011;7764;51.430;6.840;2023-07-31T06:28:29;11.70;;;6.60;;
15327;SDS011;7764;51.430;6.840;2023-07-31T06:30:56;10.73;;;6.05;;
15327;SDS011;7764;51.430;6.840;2023-07-31T06:33:23;13.98;;;6.43;;
15327;SDS011;7764;51.430;6.840;2023-07-31T06:35:52;10.82;;;6.68;;
15327;SDS011;7764;51.430;6.840;2023-07-31T06:38:21;13.80;;;7.25;;
15327;SDS011;7764;51.430;6.840;2023-07-31T06:40:49;12.50;;;6.80;;
15327;SDS011;7764;51.430;6.840;2023-07-31T06:43:16;11.60;;;6.90;;
15327;SDS011;7764;51.430;6.840;2023-07-31T06:45:43;13.15;;;7.30;;
15327;SDS011;7764;51.430;6.840;2023-07-31T06:48:10;10.48;;;6.60;;
15327;SDS011;7764;51.430;6.840;2023-07-31T06:50:38;15.20;;;10.03;;
15327;SDS011;7764;51.430;6.840;2023-07-31T06:53:06;29.42;;;21.83;;
15327;SDS011;7764;51.430;6.840;2023-07-31T06:55:33;12.00;;;7.20;;
15327;SDS011;7764;51.430;6.840;2023-07-31T06:58:00;11.45;;;7.05;;
15327;SDS011;7764;51.430;6.840;2023-07-31T07:00:27;10.25;;;6.20;;
15327;SDS011;7764;51.430;6.840;2023-07-31T07:02:55;10.32;;;6.07;;
15327;SDS011;7764;51.430;6.840;2023-07-31T07:05:22;11.32;;;6.00;;
15327;SDS011;7764;51.430;6.840;2023-07-31T07:07:49;14.43;;;6.50;;
15327;SDS011;7764;51.430;6.840;2023-07-31T07:10:18;12.25;;;6.60;;
15327;SDS011;7764;51.430;6.840;2023-07-31T07:12:45;10.50;;;6.32;;
15327;SDS011;7764;51.430;6.840;2023-07-31T07:15:12;10.25;;;6.05;;
15327;SDS011;7764;51.430;6.840;2023-07-31T07:17:40;12.30;;;5.95;;
15327;SDS011;7764;51.430;6.840;2023-07-31T07:20:07;12.63;;;6.00;;
15327;SDS011;7764;51.430;6.840;2023-07-31T07:22:35;11.88;;;6.20;;
15327;SDS011;7764;51.430;6.840;2023-07-31T07:25:02;11.13;;;6.00;;
15327;SDS011;7764;51.430;6.840;2023-07-31T07:27:30;12.80;;;7.10;;
15327;SDS011;7764;51.430;6.840;2023-07-31T07:29:58;12.65;;;7.40;;
15327;SDS011;7764;51.430;6.840;2023-07-31T07:32:25;10.63;;;5.85;;
15327;SDS011;7764;51.430;6.840;2023-07-31T07:34:52;12.32;;;5.85;;
15327;SDS011;7764;51.430;6.840;2023-07-31T07:37:19;13.18;;;6.70;;
15327;SDS011;7764;51.430;6.840;2023-07-31T07:39:46;10.80;;;6.38;;
15327;SDS011;7764;51.430;6.840;2023-07-31T07:42:13;12.53;;;6.77;;
15327;SDS011;7764;51.430;6.840;2023-07-31T07:44:42;10.50;;;6.10;;
15327;SDS011;7764;51.430;6.840;2023-07-31T07:47:09;12.50;;;6.73;;
15327;SDS011;7764;51.430;6.840;2023-07-31T07:49:36;10.88;;;5.97;;
15327;SDS011;7764;51.430;6.840;2023-07-31T07:52:03;13.23;;;6.15;;
15327;SDS011;7764;51.430;6.840;2023-07-31T07:54:30;11.02;;;5.95;;
15327;SDS011;7764;51.430;6.840;2023-07-31T07:56:57;12.20;;;5.82;;
15327;SDS011;7764;51.430;6.840;2023-07-31T07:59:25;10.50;;;5.93;;
15327;SDS011;7764;51.430;6.840;2023-07-31T08:01:53;11.68;;;5.80;;
15327;SDS011;7764;51.430;6.840;2023-07-31T08:04:20;10.88;;;5.50;;
15327;SDS011;7764;51.430;6.840;2023-07-31T08:06:48;10.98;;;5.50;;
15327;SDS011;7764;51.430;6.840;2023-07-31T08:09:15;8.90;;;5.00;;
15327;SDS011;7764;51.430;6.840;2023-07-31T08:11:42;8.13;;;4.45;;
15327;SDS011;7764;51.430;6.840;2023-07-31T08:14:09;8.68;;;4.65;;
15327;SDS011;7764;51.430;6.840;2023-07-31T08:16:36;8.75;;;4.65;;
15327;SDS011;7764;51.430;6.840;2023-07-31T08:19:05;9.82;;;4.60;;
15327;SDS011;7764;51.430;6.840;2023-07-31T08:21:32;8.20;;;4.82;;
15327;SDS011;7764;51.430;6.840;2023-07-31T08:23:59;7.32;;;4.40;;
15327;SDS011;7764;51.430;6.840;2023-07-31T08:26:26;8.23;;;4.50;;
15327;SDS011;7764;51.430;6.840;2023-07-31T08:28:53;8.45;;;4.88;;
15327;SDS011;7764;51.430;6.840;2023-07-31T08:31:20;8.25;;;4.80;;
15327;SDS011;7764;51.430;6.840;2023-07-31T08:33:47;10.38;;;6.57;;
15327;SDS011;7764;51.430;6.840;2023-07-31T08:36:16;8.93;;;4.30;;
15327;SDS011;7764;51.430;6.840;2023-07-31T08:38:44;8.88;;;4.70;;
15327;SDS011;7764;51.430;6.840;2023-07-31T08:41:12;10.73;;;4.60;;
15327;SDS011;7764;51.430;6.840;2023-07-31T08:43:39;7.28;;;4.38;;
15327;SDS011;7764;51.430;6.840;2023-07-31T08:46:06;6.43;;;4.28;;
15327;SDS011;7764;51.430;6.840;2023-07-31T08:48:34;7.68;;;4.25;;
15327;SDS011;7764;51.430;6.840;2023-07-31T08:51:02;7.18;;;3.92;;
15327;SDS011;7764;51.430;6.840;2023-07-31T08:53:31;8.35;;;4.05;;
15327;SDS011;7764;51.430;6.840;2023-07-31T08:55:58;7.97;;;4.05;;
15327;SDS011;7764;51.430;6.840;2023-07-31T08:58:26;8.57;;;5.05;;
15327;SDS011;7764;51.430;6.840;2023-07-31T09:00:54;10.95;;;4.82;;
15327;SDS011;7764;51.430;6.840;2023-07-31T09:03:23;9.60;;;4.15;;
15327;SDS011;7764;51.430;6.840;2023-07-31T09:05:50;15.70;;;10.63;;
15327;SDS011;7764;51.430;6.840;2023-07-31T09:08:18;8.88;;;5.05;;
15327;SDS011;7764;51.430;6.840;2023-07-31T09:10:47;7.28;;;4.22;;
15327;SDS011;7764;51.430;6.840;2023-07-31T09:13:16;7.90;;;4.15;;
15327;SDS011;7764;51.430;6.840;2023-07-31T09:15:44;9.50;;;4.40;;
15327;SDS011;7764;51.430;6.840;2023-07-31T09:18:12;8.52;;;4.95;;
15327;SDS011;7764;51.430;6.840;2023-07-31T09:20:42;8.60;;;4.57;;
15327;SDS011;7764;51.430;6.840;2023-07-31T09:23:09;9.32;;;4.38;;
15327;SDS011;7764;51.430;6.840;2023-07-31T09:25:37;11.80;;;6.10;;
15327;SDS011;7764;51.430;6.840;2023-07-31T09:28:06;8.63;;;4.53;;
15327;SDS011;7764;51.430;6.840;2023-07-31T09:30:43;7.60;;;4.13;;
15327;SDS011;7764;51.430;6.840;2023-07-31T09:33:11;8.77;;;4.60;;
15327;SDS011;7764;51.430;6.840;2023-07-31T09:35:38;8.27;;;5.10;;
15327;SDS011;7764;51.430;6.840;2023-07-31T09:38:06;9.77;;;6.72;;
15327;SDS011;7764;51.430;6.840;2023-07-31T09:40:34;6.40;;;3.83;;
15327;SDS011;7764;51.430;6.840;2023-07-31T09:46:04;6.75;;;3.90;;
15327;SDS011;7764;51.430;6.840;2023-07-31T09:48:40;6.53;;;3.67;;
15327;SDS011;7764;51.430;6.840;2023-07-31T09:51:07;6.68;;;3.58;;
15327;SDS011;7764;51.430;6.840;2023-07-31T09:53:34;5.93;;;3.70;;
15327;SDS011;7764;51.430;6.840;2023-07-31T09:56:02;6.30;;;3.70;;
15327;SDS011;7764;51.430;6.840;2023-07-31T09:58:29;6.82;;;4.47;;
15327;SDS011;7764;51.430;6.840;2023-07-31T10:00:57;6.18;;;3.67;;
15327;SDS011;7764;51.430;6.840;2023-07-31T10:03:26;6.03;;;3.40;;
15327;SDS011;7764;51.430;6.840;2023-07-31T10:05:54;9.43;;;3.70;;
15327;SDS011;7764;51.430;6.840;2023-07-31T10:08:23;6.72;;;3.67;;
15327;SDS011;7764;51.430;6.840;2023-07-31T10:10:55;7.03;;;4.25;;
15327;SDS011;7764;51.430;6.840;2023-07-31T10:13:25;5.00;;;3.22;;
15327;SDS011;7764;51.430;6.840;2023-07-31T10:15:54;6.13;;;3.72;;
15327;SDS011;7764;51.430;6.840;2023-07-31T10:18:26;7.07;;;3.97;;
15327;SDS011;7764;51.430;6.840;2023-07-31T10:20:54;7.80;;;4.38;;
15327;SDS011;7764;51.430;6.840;2023-07-31T10:23:22;7.93;;;5.50;;
15327;SDS011;7764;51.430;6.840;2023-07-31T10:25:50;8.18;;;4.15;;
15327;SDS011;7764;51.430;6.840;2023-07-31T10:28:20;10.45;;;6.78;;
15327;SDS011;7764;51.430;6.840;2023-07-31T10:30:47;8.27;;;5.40;;
15327;SDS011;7764;51.430;6.840;2023-07-31T10:33:15;6.15;;;3.97;;
15327;SDS011;7764;51.430;6.840;2023-07-31T10:35:45;7.40;;;4.45;;
15327;SDS011;7764;51.430;6.840;2023-07-31T10:38:13;9.07;;;5.20;;
15327;SDS011;7764;51.430;6.840;2023-07-31T10:40:41;7.68;;;4.32;;
15327;SDS011;7764;51.430;6.840;2023-07-31T10:43:09;8.13;;;4.60;;
15327;SDS011;7764;51.430;6.840;2023-07-31T10:45:50;7.28;;;4.35;;
15327;SDS011;7764;51.430;6.840;2023-07-31T10:48:17;7.22;;;4.45;;
15327;SDS011;7764;51.430;6.840;2023-07-31T10:50:49;8.38;;;4.20;;
15327;SDS011;7764;51.430;6.840;2023-07-31T10:53:23;12.75;;;9.45;;
15327;SDS011;7764;51.430;6.840;2023-07-31T10:55:50;7.25;;;4.50;;
15327;SDS011;7764;51.430;6.840;2023-07-31T10:58:18;8.80;;;4.68;;
15327;SDS011;7764;51.430;6.840;2023-07-31T11:00:45;8.45;;;4.38;;
15327;SDS011;7764;51.430;6.840;2023-07-31T11:03:13;6.80;;;4.30;;
15327;SDS011;7764;51.430;6.840;2023-07-31T11:05:44;8.20;;;4.32;;
15327;SDS011;7764;51.430;6.840;2023-07-31T11:08:16;6.72;;;4.05;;
15327;SDS011;7764;51.430;6.840;2023-07-31T11:10:44;8.77;;;4.10;;
15327;SDS011;7764;51.430;6.840;2023-07-31T11:13:11;8.18;;;4.90;;
15327;SDS011;7764;51.430;6.840;2023-07-31T11:15:39;5.75;;;3.70;;
15327;SDS011;7764;51.430;6.840;2023-07-31T11:18:06;7.88;;;4.05;;
15327;SDS011;7764;51.430;6.840;2023-07-31T11:20:36;8.40;;;3.90;;
15327;SDS011;7764;51.430;6.840;2023-07-31T11:23:04;7.10;;;3.75;;
15327;SDS011;7764;51.430;6.840;2023-07-31T11:25:33;6.95;;;3.75;;
15327;SDS011;7764;51.430;6.840;2023-07-31T11:28:04;8.20;;;4.50;;
15327;SDS011;7764;51.430;6.840;2023-07-31T11:30:31;7.20;;;3.97;;
15327;SDS011;7764;51.430;6.840;2023-07-31T11:32:59;7.38;;;4.10;;
15327;SDS011;7764;51.430;6.840;2023-07-31T11:35:27;8.27;;;4.35;;
15327;SDS011;7764;51.430;6.840;2023-07-31T11:37:54;9.15;;;4.13;;
15327;SDS011;7764;51.430;6.840;2023-07-31T11:40:22;7.72;;;3.88;;
15327;SDS011;7764;51.430;6.840;2023-07-31T11:42:55;6.80;;;4.13;;
15327;SDS011;7764;51.430;6.840;2023-07-31T11:45:23;6.63;;;3.90;;
15327;SDS011;7764;51.430;6.840;2023-07-31T11:47:51;6.53;;;3.60;;
15327;SDS011;7764;51.430;6.840;2023-07-31T11:50:18;8.23;;;3.88;;
15327;SDS011;7764;51.430;6.840;2023-07-31T11:52:45;6.65;;;4.10;;
15327;SDS011;7764;51.430;6.840;2023-07-31T11:55:13;7.00;;;3.88;;
15327;SDS011;7764;51.430;6.840;2023-07-31T11:57:41;8.00;;;4.07;;
15327;SDS011;7764;51.430;6.840;2023-07-31T12:00:10;6.45;;;4.30;;
15327;SDS011;7764;51.430;6.840;2023-07-31T12:02:39;6.53;;;3.67;;
15327;SDS011;7764;51.430;6.840;2023-07-31T12:05:06;6.78;;;3.88;;
15327;SDS011;7764;51.430;6.840;2023-07-31T12:07:46;11.30;;;7.53;;
15327;SDS011;7764;51.430;6.840;2023-07-31T12:10:23;6.05;;;4.10;;
15327;SDS011;7764;51.430;6.840;2023-07-31T12:13:01;9.38;;;5.07;;
15327;SDS011;7764;51.430;6.840;2023-07-31T12:15:30;6.85;;;4.00;;
15327;SDS011;7764;51.430;6.840;2023-07-31T12:17:59;6.78;;;4.13;;
15327;SDS011;7764;51.430;6.840;2023-07-31T12:20:26;26.05;;;20.58;;
15327;SDS011;7764;51.430;6.840;2023-07-31T12:22:55;7.65;;;4.10;;
15327;SDS011;7764;51.430;6.840;2023-07-31T12:25:28;7.07;;;3.92;;
15327;SDS011;7764;51.430;6.840;2023-07-31T12:27:56;6.10;;;3.72;;
15327;SDS011;7764;51.430;6.840;2023-07-31T12:30:26;7.63;;;4.25;;
15327;SDS011;7764;51.430;6.840;2023-07-31T12:32:55;6.18;;;3.70;;
15327;SDS011;7764;51.430;6.840;2023-07-31T12:35:22;6.32;;;4.20;;
15327;SDS011;7764;51.430;6.840;2023-07-31T12:37:50;6.30;;;3.70;;
15327;SDS011;7764;51.430;6.840;2023-07-31T12:40:17;5.72;;;3.45;;
15327;SDS011;7764;51.430;6.840;2023-07-31T12:42:44;5.00;;;3.60;;
15327;SDS011;7764;51.430;6.840;2023-07-31T12:45:12;5.20;;;3.28;;
15327;SDS011;7764;51.430;6.840;2023-07-31T12:47:39;7.05;;;4.00;;
15327;SDS011;7764;51.430;6.840;2023-07-31T12:50:09;6.30;;;3.67;;
15327;SDS011;7764;51.430;6.840;2023-07-31T12:52:36;7.90;;;3.70;;
15327;SDS011;7764;51.430;6.840;2023-07-31T12:55:03;7.32;;;3.90;;
15327;SDS011;7764;51.430;6.840;2023-07-31T12:57:31;6.22;;;3.28;;
15327;SDS011;7764;51.430;6.840;2023-07-31T12:59:58;6.13;;;3.40;;
15327;SDS011;7764;51.430;6.840;2023-07-31T13:02:25;5.72;;;3.50;;
15327;SDS011;7764;51.430;6.840;2023-07-31T13:04:52;4.88;;;3.33;;
15327;SDS011;7764;51.430;6.840;2023-07-31T13:07:22;7.05;;;3.45;;
15327;SDS011;7764;51.430;6.840;2023-07-31T13:09:50;5.75;;;3.50;;
15327;SDS011;7764;51.430;6.840;2023-07-31T13:12:17;4.57;;;3.10;;
15327;SDS011;7764;51.430;6.840;2023-07-31T13:14:44;7.90;;;4.32;;
15327;SDS011;7764;51.430;6.840;2023-07-31T13:17:12;6.80;;;3.83;;
15327;SDS011;7764;51.430;6.840;2023-07-31T13:19:39;8.43;;;4.07;;
15327;SDS011;7764;51.430;6.840;2023-07-31T13:22:06;6.40;;;3.50;;
15327;SDS011;7764;51.430;6.840;2023-07-31T13:24:34;4.87;;;3.17;;
15327;SDS011;7764;51.430;6.840;2023-07-31T13:27:01;4.57;;;3.05;;
15327;SDS011;7764;51.430;6.840;2023-07-31T13:29:29;5.20;;;3.97;;
15327;SDS011;7764;51.430;6.840;2023-07-31T13:31:57;43.58;;;38.92;;
15327;SDS011;7764;51.430;6.840;2023-07-31T13:34:24;5.85;;;3.42;;
15327;SDS011;7764;51.430;6.840;2023-07-31T13:36:51;7.05;;;4.55;;
15327;SDS011;7764;51.430;6.840;2023-07-31T13:39:18;5.22;;;3.50;;
15327;SDS011;7764;51.430;6.840;2023-07-31T13:41:47;5.93;;;3.60;;
15327;SDS011;7764;51.430;6.840;2023-07-31T13:44:14;6.80;;;3.85;;
15327;SDS011;7764;51.430;6.840;2023-07-31T13:46:41;6.47;;;4.20;;
15327;SDS011;7764;51.430;6.840;2023-07-31T13:49:08;7.20;;;4.22;;
15327;SDS011;7764;51.430;6.840;2023-07-31T13:51:35;7.25;;;4.35;;
15327;SDS011;7764;51.430;6.840;2023-07-31T13:54:04;8.68;;;4.60;;
15327;SDS011;7764;51.430;6.840;2023-07-31T13:56:32;6.72;;;4.15;;
15327;SDS011;7764;51.430;6.840;2023-07-31T13:59:01;7.78;;;4.57;;
15327;SDS011;7764;51.430;6.840;2023-07-31T14:01:28;7.15;;;4.30;;
15327;SDS011;7764;51.430;6.840;2023-07-31T14:03:55;8.15;;;4.35;;
15327;SDS011;7764;51.430;6.840;2023-07-31T14:06:22;9.93;;;5.00;;
15327;SDS011;7764;51.430;6.840;2023-07-31T14:08:49;6.47;;;4.50;;
15327;SDS011;7764;51.430;6.840;2023-07-31T14:11:17;7.03;;;4.20;;
15327;SDS011;7764;51.430;6.840;2023-07-31T14:13:44;6.38;;;4.28;;
15327;SDS011;7764;51.430;6.840;2023-07-31T14:16:12;9.57;;;4.70;;
15327;SDS011;7764;51.430;6.840;2023-07-31T14:18:39;8.57;;;4.50;;
15327;SDS011;7764;51.430;6.840;2023-07-31T14:21:06;7.32;;;4.93;;
15327;SDS011;7764;51.430;6.840;2023-07-31T14:23:34;6.15;;;4.43;;
15327;SDS011;7764;51.430;6.840;2023-07-31T14:26:01;6.40;;;4.10;;
15327;SDS011;7764;51.430;6.840;2023-07-31T14:28:28;8.57;;;4.85;;
15327;SDS011;7764;51.430;6.840;2023-07-31T14:30:55;10.57;;;4.53;;
15327;SDS011;7764;51.430;6.840;2023-07-31T14:33:23;7.97;;;4.10;;
15327;SDS011;7764;51.430;6.840;2023-07-31T14:35:51;9.00;;;4.38;;
15327;SDS011;7764;51.430;6.840;2023-07-31T14:38:19;7.05;;;4.32;;
15327;SDS011;7764;51.430;6.840;2023-07-31T14:40:46;12.95;;;4.90;;
15327;SDS011;7764;51.430;6.840;2023-07-31T14:43:14;11.60;;;4.78;;
15327;SDS011;7764;51.430;6.840;2023-07-31T14:45:42;8.70;;;5.00;;
15327;SDS011;7764;51.430;6.840;2023-07-31T14:48:11;8.88;;;5.18;;
15327;SDS011;7764;51.430;6.840;2023-07-31T14:50:39;7.38;;;4.30;;
15327;SDS011;7764;51.430;6.840;2023-07-31T14:53:08;7.40;;;4.53;;
15327;SDS011;7764;51.430;6.840;2023-07-31T14:55:35;7.47;;;4.57;;
15327;SDS011;7764;51.430;6.840;2023-07-31T14:58:02;8.10;;;4.68;;
15327;SDS011;7764;51.430;6.840;2023-07-31T15:00:29;8.43;;;5.43;;
15327;SDS011;7764;51.430;6.840;2023-07-31T15:02:56;8.25;;;4.72;;